Time;durP1;ratioP1;P1;durP2;ratioP2;P2;SDS_P1;SDS_P2;PMS_P1;PMS_P2;Temp;Humidity;BMP_temperature;BMP_pressure;BME280_temperature;BME280_humidity;BME280_pressure;Samples;Min_cycle;Max_cycle;Signal;HPM_P1;HPM_P2
2023/08/10 00:01:56;;;;;;;;;;;16.30;99.90;;;;;;5026904;28;19909;-93
2023/08/10 00:04:21;;;;;;;;;;;16.30;99.90;;;;;;5039990;28;19909;-93
2023/08/10 00:06:47;;;;;;;;;;;16.30;99.90;;;;;;5039405;28;19995;-92
2023/08/10 00:09:13;;;;;;;;;;;16.30;99.90;;;;;;5022518;28;19928;-94
2023/08/10 00:11:39;;;;;;;;;;;16.30;99.90;;;;;;5042254;28;19916;-93
2023/08/10 00:14:04;;;;;;;;;;;16.40;99.90;;;;;;5041547;28;19990;-91
2023/08/10 00:16:30;;;;;;;;;;;16.40;99.90;;;;;;5023865;28;19919;-91
2023/08/10 00:19:02;;;;;;;;;;;16.40;99.90;;;;;;5039388;28;19991;-92
2023/08/10 00:21:27;;;;;;;;;;;16.40;99.90;;;;;;5038437;28;20349;-92
2023/08/10 00:23:56;;;;;;;;;;;16.40;99.90;;;;;;5038997;28;19909;-93
2023/08/10 00:26:22;;;;;;;;;;;16.40;99.90;;;;;;5022145;28;19913;-92
2023/08/10 00:28:48;;;;;;;;;;;16.30;99.90;;;;;;5038290;28;19952;-93
2023/08/10 00:31:14;;;;;;;;;;;16.40;99.90;;;;;;5021653;28;19920;-92
2023/08/10 00:33:40;;;;;;;;;;;16.40;99.90;;;;;;5022007;28;20277;-92
2023/08/10 00:36:06;;;;;;;;;;;16.40;99.90;;;;;;5021917;28;19948;-94
2023/08/10 00:38:33;;;;;;;;;;;16.40;99.90;;;;;;5038586;28;19916;-92
2023/08/10 00:40:59;;;;;;;;;;;16.40;99.90;;;;;;5022600;28;19913;-93
2023/08/10 00:43:25;;;;;;;;;;;16.40;99.90;;;;;;5039745;28;19924;-92
2023/08/10 00:45:54;;;;;;;;;;;16.40;99.90;;;;;;5022005;28;19913;-93
2023/08/10 00:48:21;;;;;;;;;;;16.40;99.90;;;;;;5038910;28;19913;-92
2023/08/10 00:50:51;;;;;;;;;;;16.40;99.90;;;;;;5038791;28;20241;-92
2023/08/10 00:53:20;;;;;;;;;;;16.40;99.90;;;;;;5029549;28;20040;-93
2023/08/10 00:55:51;;;;;;;;;;;16.40;99.90;;;;;;5002826;28;19918;-93
2023/08/10 00:58:23;;;;;;;;;;;16.40;99.90;;;;;;5019210;28;19917;-93
2023/08/10 01:00:52;;;;;;;;;;;16.40;99.90;;;;;;5018942;28;19910;-92
2023/08/10 01:03:18;;;;;;;;;;;16.40;99.90;;;;;;5019343;28;19910;-92
2023/08/10 01:05:50;;;;;;;;;;;16.40;99.90;;;;;;5018576;28;19932;-93
2023/08/10 01:08:25;;;;;;;;;;;16.40;99.90;;;;;;5019008;28;19924;-93
2023/08/10 01:10:54;;;;;;;;;;;16.40;99.90;;;;;;5020122;28;19909;-93
2023/08/10 01:13:22;;;;;;;;;;;16.40;99.90;;;;;;5019391;28;19969;-94
2023/08/10 01:15:53;;;;;;;;;;;16.40;99.90;;;;;;5019106;28;19909;-93
2023/08/10 01:18:21;;;;;;;;;;;16.40;99.90;;;;;;5018777;28;19932;-93
2023/08/10 01:20:47;;;;;;;;;;;16.40;99.90;;;;;;5017989;28;19948;-93
2023/08/10 01:23:34;;;;;;;;;;;16.40;99.90;;;;;;5019190;28;19913;-93
2023/08/10 01:26:00;;;;;;;;;;;16.40;99.90;;;;;;5018413;28;20325;-93
2023/08/10 01:28:31;;;;;;;;;;;16.40;99.90;;;;;;5002225;28;20369;-92
2023/08/10 01:31:04;;;;;;;;;;;16.40;99.90;;;;;;5018134;28;20011;-92
2023/08/10 01:33:30;;;;;;;;;;;16.40;99.90;;;;;;5017728;28;19909;-93
2023/08/10 01:35:56;;;;;;;;;;;16.40;99.90;;;;;;5018127;28;19944;-92
2023/08/10 01:38:22;;;;;;;;;;;16.40;99.90;;;;;;5017531;28;20255;-92
2023/08/10 01:40:51;;;;;;;;;;;16.40;99.90;;;;;;5017768;28;19925;-92
2023/08/10 01:43:17;;;;;;;;;;;16.40;99.90;;;;;;5018121;28;19915;-92
2023/08/10 01:45:44;;;;;;;;;;;16.40;99.90;;;;;;5019864;28;19980;-93
2023/08/10 01:48:17;;;;;;;;;;;16.40;99.90;;;;;;5020796;28;19920;-93
2023/08/10 01:50:45;;;;;;;;;;;16.40;99.90;;;;;;5020140;28;19921;-93
2023/08/10 01:53:37;;;;;;;;;;;16.40;99.90;;;;;;5032086;28;19917;-93
2023/08/10 01:56:03;;;;;;;;;;;16.40;99.90;;;;;;5039397;28;19913;-93
2023/08/10 01:58:29;;;;;;;;;;;16.40;99.90;;;;;;5042169;28;20361;-93
2023/08/10 02:00:55;;;;;;;;;;;16.40;99.90;;;;;;5045058;28;19909;-93
2023/08/10 02:03:21;;;;;;;;;;;16.40;99.90;;;;;;5024750;28;19913;-94
2023/08/10 02:05:46;;;;;;;;;;;16.40;99.90;;;;;;5039266;28;19909;-93
2023/08/10 02:08:12;;;;;;;;;;;16.40;99.90;;;;;;5038226;28;20135;-93
2023/08/10 02:10:40;;;;;;;;;;;16.40;99.90;;;;;;5038328;28;19909;-94
2023/08/10 02:13:06;;;;;;;;;;;16.40;99.90;;;;;;5038448;28;19909;-93
2023/08/10 02:15:31;;;;;;;;;;;16.30;99.90;;;;;;5038000;28;19931;-92
2023/08/10 02:17:57;;;;;;;;;;;16.30;99.90;;;;;;5019120;28;20008;-93
2023/08/10 02:20:22;;;;;;;;;;;16.30;99.90;;;;;;5029854;28;19920;-92
2023/08/10 02:22:49;;;;;;;;;;;16.30;99.90;;;;;;5038050;28;19916;-93
2023/08/10 02:25:15;;;;;;;;;;;16.30;99.90;;;;;;5040656;28;19908;-94
2023/08/10 02:27:41;;;;;;;;;;;16.30;99.90;;;;;;5022441;28;19917;-94
2023/08/10 02:30:07;;;;;;;;;;;16.20;99.90;;;;;;5031328;28;19916;-93
2023/08/10 02:32:33;;;;;;;;;;;16.20;99.90;;;;;;5043832;28;19927;-93
2023/08/10 02:34:59;;;;;;;;;;;16.20;99.90;;;;;;5027086;28;20007;-91
2023/08/10 02:37:24;;;;;;;;;;;16.20;99.90;;;;;;5024756;28;19912;-92
2023/08/10 02:39:50;;;;;;;;;;;16.20;99.90;;;;;;5041600;28;20012;-93
2023/08/10 02:42:16;;;;;;;;;;;16.20;99.90;;;;;;5024692;28;19920;-93
2023/08/10 02:44:41;;;;;;;;;;;16.20;99.90;;;;;;5041920;28;19916;-92
2023/08/10 02:47:07;;;;;;;;;;;16.20;99.90;;;;;;5042157;28;19909;-93
2023/08/10 02:49:32;;;;;;;;;;;16.20;99.90;;;;;;5025560;28;19963;-92
2023/08/10 02:51:58;;;;;;;;;;;16.10;99.90;;;;;;5041190;28;19952;-93
2023/08/10 02:54:24;;;;;;;;;;;16.10;99.90;;;;;;5040882;28;19917;-93
2023/08/10 02:56:49;;;;;;;;;;;16.10;99.90;;;;;;5040352;28;19952;-93
2023/08/10 02:59:15;;;;;;;;;;;16.10;99.90;;;;;;5040269;28;20272;-93
2023/08/10 03:01:40;;;;;;;;;;;16.10;99.90;;;;;;5040765;28;19909;-94
2023/08/10 03:04:06;;;;;;;;;;;16.10;99.90;;;;;;5040482;28;19909;-94
2023/08/10 03:06:32;;;;;;;;;;;16.10;99.90;;;;;;5024743;28;19913;-93
2023/08/10 03:08:58;;;;;;;;;;;16.10;99.90;;;;;;5040310;28;19917;-92
2023/08/10 03:11:23;;;;;;;;;;;16.10;99.90;;;;;;5040841;28;19916;-92
2023/08/10 03:13:49;;;;;;;;;;;16.10;99.90;;;;;;5039933;28;19958;-93
2023/08/10 03:16:14;;;;;;;;;;;16.10;99.90;;;;;;5039974;28;19909;-94
2023/08/10 03:18:41;;;;;;;;;;;16.10;99.90;;;;;;5039466;28;19909;-91
2023/08/10 03:21:07;;;;;;;;;;;16.10;99.90;;;;;;5023086;28;19913;-93
2023/08/10 03:23:38;;;;;;;;;;;16.10;99.90;;;;;;5039775;28;19919;-92
2023/08/10 03:26:04;;;;;;;;;;;16.10;99.90;;;;;;5039474;28;19915;-92
2023/08/10 03:28:30;;;;;;;;;;;16.00;99.90;;;;;;5039535;28;19999;-94
2023/08/10 03:30:55;;;;;;;;;;;16.00;99.90;;;;;;5023206;28;20403;-93
2023/08/10 03:33:23;;;;;;;;;;;16.00;99.90;;;;;;5039353;28;20381;-92
2023/08/10 03:35:49;;;;;;;;;;;16.00;99.90;;;;;;5022624;28;19913;-93
2023/08/10 03:38:14;;;;;;;;;;;16.00;99.90;;;;;;5022276;28;19935;-93
2023/08/10 03:40:40;;;;;;;;;;;16.00;99.90;;;;;;5039332;28;19992;-92
2023/08/10 03:43:06;;;;;;;;;;;16.00;99.90;;;;;;5034945;28;19897;-92
2023/08/10 03:45:31;;;;;;;;;;;15.90;99.90;;;;;;5056827;28;19909;-93
2023/08/10 03:47:57;;;;;;;;;;;15.90;99.90;;;;;;5045109;28;19919;-93
2023/08/10 03:50:22;;;;;;;;;;;15.90;99.90;;;;;;5039045;28;20376;-94
2023/08/10 03:52:48;;;;;;;;;;;15.90;99.90;;;;;;5022776;28;20301;-92
2023/08/10 03:55:15;;;;;;;;;;;15.90;99.90;;;;;;5038910;28;19909;-92
2023/08/10 03:57:41;;;;;;;;;;;15.90;99.90;;;;;;5038578;28;19916;-94
2023/08/10 04:00:07;;;;;;;;;;;15.90;99.90;;;;;;5041003;28;19908;-95
2023/08/10 04:02:33;;;;;;;;;;;15.90;99.90;;;;;;5043892;28;19919;-94
2023/08/10 04:04:58;;;;;;;;;;;15.90;99.90;;;;;;5044464;28;19980;-94
2023/08/10 04:07:24;;;;;;;;;;;15.90;99.90;;;;;;5030505;28;19920;-94
2023/08/10 04:09:50;;;;;;;;;;;15.90;99.90;;;;;;5029901;28;19964;-94
2023/08/10 04:12:16;;;;;;;;;;;15.90;99.90;;;;;;5027476;28;19912;-95
2023/08/10 04:14:41;;;;;;;;;;;15.90;99.90;;;;;;5046255;28;19909;-94
2023/08/10 04:17:07;;;;;;;;;;;15.90;99.90;;;;;;5038965;28;20307;-94
2023/08/10 04:19:32;;;;;;;;;;;15.80;99.90;;;;;;5021417;28;19931;-94
2023/08/10 04:21:58;;;;;;;;;;;15.80;99.90;;;;;;5038949;28;19916;-93
2023/08/10 04:24:23;;;;;;;;;;;15.80;99.90;;;;;;5047847;28;19947;-93
2023/08/10 04:29:52;;;;;;;;;;;15.80;99.90;;;;;;5064180;28;20299;-94
2023/08/10 04:32:18;;;;;;;;;;;15.90;99.90;;;;;;5026412;28;19913;-92
2023/08/10 04:34:43;;;;;;;;;;;15.80;99.90;;;;;;5037949;28;20000;-93
2023/08/10 04:37:09;;;;;;;;;;;15.80;99.90;;;;;;5037953;28;19909;-92
2023/08/10 04:39:34;;;;;;;;;;;15.80;99.90;;;;;;5037692;28;19915;-92
2023/08/10 04:42:00;;;;;;;;;;;15.90;99.90;;;;;;5021276;28;20353;-92
2023/08/10 04:44:26;;;;;;;;;;;15.90;99.90;;;;;;5021285;28;19948;-92
2023/08/10 04:46:53;;;;;;;;;;;15.90;99.90;;;;;;5020905;28;19919;-92
2023/08/10 04:49:18;;;;;;;;;;;15.80;99.90;;;;;;5037703;28;19913;-93
2023/08/10 04:51:47;;;;;;;;;;;15.80;99.90;;;;;;5038026;28;19908;-93
2023/08/10 04:54:12;;;;;;;;;;;15.90;99.90;;;;;;5020873;28;19990;-93
2023/08/10 04:56:38;;;;;;;;;;;15.90;99.90;;;;;;5020734;28;20000;-94
2023/08/10 04:59:04;;;;;;;;;;;15.90;99.90;;;;;;5023779;28;19910;-95
2023/08/10 05:01:29;;;;;;;;;;;15.90;99.90;;;;;;5023591;28;19913;-93
2023/08/10 05:03:55;;;;;;;;;;;15.90;99.90;;;;;;5006559;28;19952;-94
2023/08/10 05:06:23;;;;;;;;;;;15.90;99.90;;;;;;5019752;28;19956;-93
2023/08/10 05:08:49;;;;;;;;;;;15.90;99.90;;;;;;5001504;28;19922;-93
2023/08/10 05:11:16;;;;;;;;;;;15.80;99.90;;;;;;5017845;28;19909;-94
2023/08/10 05:13:42;;;;;;;;;;;15.80;99.90;;;;;;5018116;28;19909;-93
2023/08/10 05:16:07;;;;;;;;;;;15.80;99.90;;;;;;5017929;28;19932;-94
2023/08/10 05:18:33;;;;;;;;;;;15.80;99.90;;;;;;5018082;28;19913;-94
2023/08/10 05:21:02;;;;;;;;;;;15.80;99.90;;;;;;5027343;28;19913;-95
2023/08/10 05:23:28;;;;;;;;;;;15.80;99.90;;;;;;5017407;28;20004;-93
2023/08/10 05:25:53;;;;;;;;;;;15.90;99.90;;;;;;5001348;28;19990;-93
2023/08/10 05:28:19;;;;;;;;;;;15.90;99.90;;;;;;5002291;28;19917;-94
2023/08/10 05:30:45;;;;;;;;;;;15.90;99.90;;;;;;5018755;28;19916;-94
2023/08/10 05:33:10;;;;;;;;;;;15.90;99.90;;;;;;5019189;28;19917;-93
2023/08/10 05:35:36;;;;;;;;;;;16.00;99.90;;;;;;5018889;28;20000;-95
2023/08/10 05:38:02;;;;;;;;;;;16.00;99.90;;;;;;5003735;28;19970;-93
2023/08/10 05:40:28;;;;;;;;;;;16.00;99.90;;;;;;5018729;28;19909;-93
2023/08/10 05:42:55;;;;;;;;;;;16.00;99.90;;;;;;5018533;28;20354;-94
2023/08/10 05:45:21;;;;;;;;;;;16.00;99.90;;;;;;5017681;28;19992;-94
2023/08/10 05:47:47;;;;;;;;;;;16.10;99.90;;;;;;5018172;28;19948;-93
2023/08/10 05:50:13;;;;;;;;;;;16.10;99.90;;;;;;5018240;28;19919;-93
2023/08/10 05:52:39;;;;;;;;;;;16.10;99.90;;;;;;5022352;28;19913;-94
2023/08/10 05:55:05;;;;;;;;;;;16.10;99.90;;;;;;5039121;28;20334;-92
2023/08/10 05:57:31;;;;;;;;;;;16.10;99.90;;;;;;5038504;28;19909;-93
2023/08/10 05:59:56;;;;;;;;;;;16.10;99.90;;;;;;5039820;28;19909;-94
2023/08/10 06:02:22;;;;;;;;;;;16.20;99.90;;;;;;5025109;28;19916;-94
2023/08/10 06:04:49;;;;;;;;;;;16.20;99.90;;;;;;5041232;28;19915;-93
2023/08/10 06:07:15;;;;;;;;;;;16.20;99.90;;;;;;5045655;28;19909;-95
2023/08/10 06:09:47;;;;;;;;;;;16.20;99.90;;;;;;5049523;28;19940;-94
2023/08/10 06:12:12;;;;;;;;;;;16.20;99.90;;;;;;5044773;28;20395;-95
2023/08/10 06:14:38;;;;;;;;;;;16.30;99.90;;;;;;5041660;28;19908;-93
2023/08/10 06:17:06;;;;;;;;;;;16.30;99.90;;;;;;5025483;28;19920;-95
2023/08/10 06:19:32;;;;;;;;;;;16.30;99.90;;;;;;5051245;28;19912;-95
2023/08/10 06:21:57;;;;;;;;;;;16.30;99.90;;;;;;5041700;28;19916;-94
2023/08/10 06:24:25;;;;;;;;;;;16.30;99.90;;;;;;5026308;28;20027;-94
2023/08/10 06:26:51;;;;;;;;;;;16.40;99.90;;;;;;5042282;28;19913;-95
2023/08/10 06:29:23;;;;;;;;;;;16.40;99.90;;;;;;5025188;28;19971;-93
2023/08/10 06:31:48;;;;;;;;;;;16.40;99.90;;;;;;5041520;28;19915;-93
2023/08/10 06:34:15;;;;;;;;;;;16.50;99.90;;;;;;5040389;28;20417;-93
2023/08/10 06:36:44;;;;;;;;;;;16.50;99.90;;;;;;5041065;28;20269;-93
2023/08/10 06:39:10;;;;;;;;;;;16.50;99.90;;;;;;5040240;28;19909;-94
2023/08/10 06:41:36;;;;;;;;;;;16.60;99.90;;;;;;5027074;28;19920;-92
2023/08/10 06:44:02;;;;;;;;;;;16.60;99.90;;;;;;5048578;28;20361;-92
2023/08/10 06:46:28;;;;;;;;;;;16.60;99.90;;;;;;5026906;28;19917;-93
2023/08/10 06:48:55;;;;;;;;;;;16.60;99.90;;;;;;5042233;28;19924;-95
2023/08/10 06:51:21;;;;;;;;;;;16.60;99.90;;;;;;5042541;28;19909;-93
2023/08/10 06:53:46;;;;;;;;;;;16.70;99.90;;;;;;5023223;28;20321;-93
2023/08/10 06:56:12;;;;;;;;;;;16.80;99.90;;;;;;5008607;28;20355;-93
2023/08/10 06:58:38;;;;;;;;;;;16.80;99.90;;;;;;5006365;28;19913;-93
2023/08/10 07:01:03;;;;;;;;;;;16.80;99.90;;;;;;5022328;28;19962;-94
2023/08/10 07:03:29;;;;;;;;;;;16.80;99.90;;;;;;5023025;28;19909;-92
2023/08/10 07:05:55;;;;;;;;;;;16.90;99.90;;;;;;5004952;28;19928;-92
2023/08/10 07:08:21;;;;;;;;;;;16.90;99.90;;;;;;5005997;28;20278;-92
2023/08/10 07:10:47;;;;;;;;;;;17.00;99.90;;;;;;5022194;28;19918;-91
2023/08/10 07:13:19;;;;;;;;;;;17.00;99.90;;;;;;5026877;28;19912;-92
2023/08/10 07:15:45;;;;;;;;;;;17.10;99.90;;;;;;5023942;28;19984;-91
2023/08/10 07:18:15;;;;;;;;;;;17.10;99.90;;;;;;5021524;28;19959;-92
2023/08/10 07:20:40;;;;;;;;;;;17.10;99.90;;;;;;5023138;28;19916;-93
2023/08/10 07:23:06;;;;;;;;;;;17.20;99.90;;;;;;5022870;28;19987;-93
2023/08/10 07:25:31;;;;;;;;;;;17.20;99.90;;;;;;5020009;28;19956;-93
2023/08/10 07:27:57;;;;;;;;;;;17.30;99.90;;;;;;5020359;28;19919;-92
2023/08/10 07:30:22;;;;;;;;;;;17.30;99.90;;;;;;5020910;28;19913;-93
2023/08/10 07:32:48;;;;;;;;;;;17.30;99.90;;;;;;5003686;28;19913;-93
2023/08/10 07:35:14;;;;;;;;;;;17.40;99.90;;;;;;5020356;28;20380;-94
2023/08/10 07:37:40;;;;;;;;;;;17.40;99.90;;;;;;5020404;28;20344;-93
2023/08/10 07:40:07;;;;;;;;;;;17.50;99.90;;;;;;5019802;28;20001;-94
2023/08/10 07:42:32;;;;;;;;;;;17.50;99.90;;;;;;5005573;28;20374;-93
2023/08/10 07:44:58;;;;;;;;;;;17.50;99.90;;;;;;5016822;28;19913;-93
2023/08/10 07:47:24;;;;;;;;;;;17.60;99.90;;;;;;5024317;28;19911;-92
2023/08/10 07:49:50;;;;;;;;;;;17.70;99.90;;;;;;5004195;28;19964;-93
2023/08/10 07:52:15;;;;;;;;;;;17.70;99.90;;;;;;5003048;28;19921;-93
2023/08/10 07:54:43;;;;;;;;;;;17.80;99.90;;;;;;5020346;28;20370;-93
2023/08/10 07:57:15;;;;;;;;;;;17.80;99.90;;;;;;5003130;28;19920;-93
2023/08/10 07:59:42;;;;;;;;;;;17.80;99.90;;;;;;5003508;28;19913;-94
2023/08/10 08:02:17;;;;;;;;;;;17.90;99.90;;;;;;5019668;28;20337;-93
2023/08/10 08:04:43;;;;;;;;;;;17.90;99.90;;;;;;5019763;28;19913;-94
2023/08/10 08:07:11;;;;;;;;;;;18.00;99.90;;;;;;5019975;28;20274;-93
2023/08/10 08:09:37;;;;;;;;;;;18.00;99.90;;;;;;5020010;28;20333;-94
2023/08/10 08:12:03;;;;;;;;;;;18.10;99.90;;;;;;5019849;28;19952;-95
2023/08/10 08:14:30;;;;;;;;;;;18.20;99.90;;;;;;5019336;28;19941;-94
2023/08/10 08:16:56;;;;;;;;;;;18.20;99.90;;;;;;5020267;28;19933;-94
2023/08/10 08:19:22;;;;;;;;;;;18.20;99.90;;;;;;5004313;28;19917;-95
2023/08/10 08:21:48;;;;;;;;;;;18.30;99.90;;;;;;5019156;28;19909;-94
2023/08/10 08:24:14;;;;;;;;;;;18.30;99.90;;;;;;5019760;28;19909;-95
2023/08/10 08:26:40;;;;;;;;;;;18.30;99.90;;;;;;5021642;28;19969;-94
2023/08/10 08:29:06;;;;;;;;;;;18.40;99.90;;;;;;5022490;28;19936;-94
2023/08/10 08:31:33;;;;;;;;;;;18.50;99.90;;;;;;5018905;28;19924;-94
2023/08/10 08:33:59;;;;;;;;;;;18.50;99.90;;;;;;5019435;28;19944;-94
2023/08/10 08:36:24;;;;;;;;;;;18.50;99.90;;;;;;5018972;28;19980;-95
2023/08/10 08:38:52;;;;;;;;;;;18.60;99.90;;;;;;5019726;28;19909;-95
2023/08/10 08:41:20;;;;;;;;;;;18.70;99.90;;;;;;5018597;28;19909;-92
2023/08/10 08:43:47;;;;;;;;;;;18.70;99.90;;;;;;5019060;28;19919;-94
2023/08/10 08:46:13;;;;;;;;;;;18.80;99.90;;;;;;5019289;28;19917;-94
2023/08/10 08:48:39;;;;;;;;;;;18.80;99.90;;;;;;5002759;28;19917;-94
2023/08/10 08:51:07;;;;;;;;;;;18.90;99.90;;;;;;5002050;28;19982;-95
2023/08/10 08:53:33;;;;;;;;;;;18.90;99.90;;;;;;5027009;28;19959;-93
2023/08/10 08:55:58;;;;;;;;;;;19.00;99.90;;;;;;5038311;28;19963;-93
2023/08/10 08:58:24;;;;;;;;;;;19.10;99.90;;;;;;5037932;28;19948;-92
2023/08/10 09:00:52;;;;;;;;;;;19.10;99.90;;;;;;5021159;28;19920;-94
2023/08/10 09:03:18;;;;;;;;;;;19.20;99.90;;;;;;5037478;28;20285;-93
2023/08/10 09:05:47;;;;;;;;;;;19.20;99.90;;;;;;5037291;28;19913;-92
2023/08/10 09:08:16;;;;;;;;;;;19.30;99.90;;;;;;5036357;28;20224;-93
2023/08/10 09:10:43;;;;;;;;;;;19.40;99.90;;;;;;5021887;28;20007;-93
2023/08/10 09:13:09;;;;;;;;;;;19.40;99.90;;;;;;5037371;28;19963;-93
2023/08/10 09:15:38;;;;;;;;;;;19.50;99.90;;;;;;5037268;28;19963;-93
2023/08/10 09:18:04;;;;;;;;;;;19.60;99.90;;;;;;5020628;28;19916;-93
2023/08/10 09:20:35;;;;;;;;;;;19.60;99.90;;;;;;5020787;28;20336;-93
2023/08/10 09:23:09;;;;;;;;;;;19.70;99.90;;;;;;5037269;28;19955;-92
2023/08/10 09:25:36;;;;;;;;;;;19.70;99.90;;;;;;5021912;28;19913;-93
2023/08/10 09:28:06;;;;;;;;;;;19.80;99.90;;;;;;5020724;28;19924;-92
2023/08/10 09:30:32;;;;;;;;;;;19.80;99.90;;;;;;5037203;28;19931;-93
2023/08/10 09:32:58;;;;;;;;;;;19.90;99.90;;;;;;5021009;28;19913;-94
2023/08/10 09:35:28;;;;;;;;;;;20.00;99.90;;;;;;5020822;28;20089;-93
2023/08/10 09:38:02;;;;;;;;;;;20.10;99.90;;;;;;5037384;28;19909;-93
2023/08/10 09:40:29;;;;;;;;;;;20.10;99.90;;;;;;5021036;28;19920;-94
2023/08/10 09:42:58;;;;;;;;;;;20.20;99.90;;;;;;5020785;28;19919;-93
2023/08/10 09:45:26;;;;;;;;;;;20.30;99.90;;;;;;5020782;28;20002;-93
2023/08/10 09:47:54;;;;;;;;;;;20.30;99.90;;;;;;5037726;28;19913;-94
2023/08/10 09:50:20;;;;;;;;;;;20.40;99.90;;;;;;5037024;28;19995;-93
2023/08/10 09:52:46;;;;;;;;;;;20.40;99.90;;;;;;5037380;28;19963;-93
2023/08/10 09:55:12;;;;;;;;;;;20.50;99.90;;;;;;5020590;28;19956;-94
2023/08/10 09:57:44;;;;;;;;;;;20.50;99.90;;;;;;5020519;28;19963;-93
2023/08/10 10:00:15;;;;;;;;;;;20.50;99.90;;;;;;5036705;28;19909;-93
2023/08/10 10:02:44;;;;;;;;;;;20.60;99.90;;;;;;5039461;28;19956;-96
2023/08/10 10:05:16;;;;;;;;;;;20.60;99.90;;;;;;5039360;28;19999;-93
2023/08/10 10:07:42;;;;;;;;;;;20.60;99.90;;;;;;5037287;28;19921;-94
2023/08/10 10:10:12;;;;;;;;;;;20.70;99.90;;;;;;5037055;28;19935;-94
2023/08/10 10:12:40;;;;;;;;;;;20.70;99.90;;;;;;5037410;28;19909;-94
2023/08/10 10:15:06;;;;;;;;;;;20.70;99.90;;;;;;5037074;28;19909;-95
2023/08/10 10:17:32;;;;;;;;;;;20.80;99.90;;;;;;5038280;28;19913;-95
2023/08/10 10:19:58;;;;;;;;;;;20.80;99.90;;;;;;5040908;28;19913;-94
2023/08/10 10:22:24;;;;;;;;;;;20.80;99.90;;;;;;5038685;28;20000;-92
2023/08/10 10:25:08;;;;;;;;;;;20.80;99.90;;;;;;5038239;28;19909;-92
2023/08/10 10:27:40;;;;;;;;;;;20.90;99.90;;;;;;5036636;28;19908;-92
2023/08/10 10:30:21;;;;;;;;;;;20.90;99.90;;;;;;5020582;28;19913;-91
2023/08/10 10:32:48;;;;;;;;;;;20.90;99.90;;;;;;5038390;28;19909;-92
2023/08/10 10:35:26;;;;;;;;;;;21.00;99.90;;;;;;5040479;28;19913;-93
2023/08/10 10:37:58;;;;;;;;;;;21.00;99.90;;;;;;5040378;28;19909;-93
2023/08/10 10:40:27;;;;;;;;;;;21.10;99.90;;;;;;5040849;28;19912;-92
2023/08/10 10:43:09;;;;;;;;;;;21.10;99.90;;;;;;5041946;28;19912;-92
2023/08/10 10:45:38;;;;;;;;;;;21.20;99.90;;;;;;5025967;28;19913;-92
2023/08/10 10:48:17;;;;;;;;;;;21.20;99.90;;;;;;5050811;28;20010;-92
2023/08/10 10:50:43;;;;;;;;;;;21.20;99.90;;;;;;5050337;28;19912;-91
2023/08/10 10:53:11;;;;;;;;;;;21.20;99.90;;;;;;5045920;28;20421;-92
2023/08/10 10:55:45;;;;;;;;;;;21.20;99.90;;;;;;5050030;28;19916;-95
2023/08/10 11:01:32;;;;;;;;;;;21.30;99.90;;;;;;5004321;28;19915;-94
2023/08/10 11:03:58;;;;;;;;;;;21.40;99.90;;;;;;5044565;28;20361;-94
2023/08/10 11:06:24;;;;;;;;;;;21.50;99.90;;;;;;5027372;28;19924;-94
2023/08/10 11:08:54;;;;;;;;;;;21.50;99.90;;;;;;5027327;28;19928;-94
2023/08/10 11:11:24;;;;;;;;;;;21.50;99.90;;;;;;5027286;28;19936;-94
2023/08/10 11:13:51;;;;;;;;;;;21.60;99.90;;;;;;5040699;28;20412;-92
2023/08/10 11:16:17;;;;;;;;;;;21.60;99.90;;;;;;5040262;28;19916;-92
2023/08/10 11:18:45;;;;;;;;;;;21.70;99.90;;;;;;5039713;28;19967;-92
2023/08/10 11:21:12;;;;;;;;;;;21.70;99.90;;;;;;5039471;28;19909;-92
2023/08/10 11:23:40;;;;;;;;;;;21.80;99.90;;;;;;5023082;28;19913;-93
2023/08/10 11:26:13;;;;;;;;;;;21.90;99.90;;;;;;5039168;28;19909;-93
2023/08/10 11:28:38;;;;;;;;;;;21.90;99.90;;;;;;5039527;28;20261;-93
2023/08/10 11:31:05;;;;;;;;;;;22.00;99.90;;;;;;5020954;28;19959;-95
2023/08/10 11:33:31;;;;;;;;;;;22.00;99.90;;;;;;5023686;28;19912;-95
2023/08/10 11:35:58;;;;;;;;;;;22.00;99.90;;;;;;5040125;28;20260;-94
2023/08/10 11:38:24;;;;;;;;;;;22.10;99.90;;;;;;5040688;28;19932;-96
2023/08/10 11:40:52;;;;;;;;;;;22.10;99.90;;;;;;5040228;28;20357;-94
2023/08/10 11:43:21;;;;;;;;;;;22.20;99.90;;;;;;5041446;28;20361;-95
2023/08/10 11:45:52;;;;;;;;;;;22.20;99.90;;;;;;5042051;28;19933;-93
2023/08/10 11:48:19;;;;;;;;;;;22.30;99.90;;;;;;5021163;28;20385;-94
2023/08/10 11:50:45;;;;;;;;;;;22.40;99.90;;;;;;5038720;28;19909;-93
2023/08/10 11:53:15;;;;;;;;;;;22.40;99.90;;;;;;5019742;28;19921;-93
2023/08/10 11:55:51;;;;;;;;;;;22.50;99.90;;;;;;5038937;28;19999;-93
2023/08/10 11:58:18;;;;;;;;;;;22.50;99.90;;;;;;5037610;28;19916;-92
2023/08/10 12:00:50;;;;;;;;;;;22.60;99.90;;;;;;5038734;28;19913;-93
2023/08/10 12:03:16;;;;;;;;;;;22.60;99.90;;;;;;5038963;28;19916;-92
2023/08/10 12:05:43;;;;;;;;;;;22.60;99.90;;;;;;5038943;28;19940;-93
2023/08/10 12:08:18;;;;;;;;;;;22.70;99.90;;;;;;5043893;28;19972;-95
2023/08/10 12:13:54;;;;;;;;;;;22.80;99.90;;;;;;5032548;28;19917;-95
2023/08/10 12:16:22;;;;;;;;;;;22.80;99.90;;;;;;5052625;28;19913;-95
2023/08/10 12:19:11;;;;;;;;;;;22.90;99.90;;;;;;5044148;28;20272;-94
2023/08/10 12:21:39;;;;;;;;;;;22.90;99.90;;;;;;5056013;28;19916;-94
2023/08/10 12:24:05;;;;;;;;;;;23.00;99.90;;;;;;5038522;28;19916;-94
2023/08/10 12:26:34;;;;;;;;;;;23.10;99.90;;;;;;5038976;28;19909;-95
2023/08/10 12:29:01;;;;;;;;;;;23.10;99.90;;;;;;5039209;28;20257;-94
2023/08/10 12:31:29;;;;;;;;;;;23.10;99.90;;;;;;5021841;28;19917;-94
2023/08/10 12:33:56;;;;;;;;;;;23.10;99.90;;;;;;5039008;28;20384;-95
2023/08/10 12:36:32;;;;;;;;;;;23.20;99.90;;;;;;5038468;28;19909;-92
2023/08/10 12:38:58;;;;;;;;;;;23.20;99.90;;;;;;5037550;28;19963;-92
2023/08/10 12:41:23;;;;;;;;;;;23.30;99.90;;;;;;5037710;28;20000;-93
2023/08/10 12:43:59;;;;;;;;;;;23.30;99.90;;;;;;5037889;28;19994;-93
2023/08/10 12:46:27;;;;;;;;;;;23.30;99.90;;;;;;5037720;28;19943;-92
2023/08/10 12:48:55;;;;;;;;;;;23.40;99.90;;;;;;5022437;28;20303;-92
2023/08/10 12:51:20;;;;;;;;;;;23.40;99.90;;;;;;5021513;28;19998;-92
2023/08/10 12:53:47;;;;;;;;;;;23.40;99.90;;;;;;5035460;28;19917;-94
2023/08/10 12:56:15;;;;;;;;;;;23.50;99.90;;;;;;5005380;28;19937;-94
2023/08/10 12:58:47;;;;;;;;;;;23.50;99.90;;;;;;5018888;28;19960;-94
2023/08/10 13:01:13;;;;;;;;;;;23.60;99.90;;;;;;5018368;28;19916;-93
2023/08/10 13:03:41;;;;;;;;;;;23.60;99.90;;;;;;5002688;28;19913;-94
2023/08/10 13:06:07;;;;;;;;;;;23.70;99.90;;;;;;5019003;28;19909;-94
2023/08/10 13:08:32;;;;;;;;;;;23.70;99.90;;;;;;5026016;28;19960;-92
2023/08/10 13:10:58;;;;;;;;;;;23.70;99.90;;;;;;5017743;28;19909;-92
2023/08/10 13:13:26;;;;;;;;;;;23.80;99.90;;;;;;5017522;28;20372;-93
2023/08/10 13:15:52;;;;;;;;;;;23.80;99.90;;;;;;5018107;28;19909;-94
2023/08/10 13:18:17;;;;;;;;;;;23.80;99.90;;;;;;5019784;28;19916;-94
2023/08/10 13:20:43;;;;;;;;;;;23.90;99.90;;;;;;5002803;28;19923;-94
2023/08/10 13:23:08;;;;;;;;;;;23.90;99.90;;;;;;5022746;28;20243;-93
2023/08/10 13:25:34;;;;;;;;;;;23.90;99.90;;;;;;5028616;28;20019;-94
2023/08/10 13:28:00;;;;;;;;;;;23.90;99.90;;;;;;5017810;28;19913;-94
2023/08/10 13:30:25;;;;;;;;;;;23.90;99.90;;;;;;5018122;28;19909;-95
2023/08/10 13:32:51;;;;;;;;;;;23.90;99.90;;;;;;5001513;28;19913;-94
2023/08/10 13:35:16;;;;;;;;;;;23.90;99.90;;;;;;5017816;28;19932;-93
2023/08/10 13:37:42;;;;;;;;;;;24.00;99.90;;;;;;5017707;28;19924;-93
2023/08/10 13:40:08;;;;;;;;;;;24.00;99.90;;;;;;5017076;28;19913;-94
2023/08/10 13:42:34;;;;;;;;;;;24.00;99.90;;;;;;5001301;28;20385;-94
2023/08/10 13:45:00;;;;;;;;;;;24.00;99.90;;;;;;5017334;28;19909;-92
2023/08/10 13:47:26;;;;;;;;;;;24.10;99.90;;;;;;5000783;28;19913;-93
2023/08/10 13:49:51;;;;;;;;;;;24.20;99.90;;;;;;5000841;28;19918;-92
2023/08/10 13:52:17;;;;;;;;;;;24.20;99.90;;;;;;5000830;28;20286;-92
2023/08/10 13:54:50;;;;;;;;;;;24.20;99.90;;;;;;5017000;28;19921;-93
2023/08/10 13:57:18;;;;;;;;;;;24.20;99.90;;;;;;5001417;28;19914;-94
2023/08/10 13:59:45;;;;;;;;;;;24.20;99.90;;;;;;5017344;28;20392;-92
2023/08/10 14:02:10;;;;;;;;;;;24.20;99.90;;;;;;5016996;28;19908;-93
2023/08/10 14:04:36;;;;;;;;;;;24.30;99.90;;;;;;5017014;28;19960;-93
2023/08/10 14:07:02;;;;;;;;;;;24.30;99.90;;;;;;5001408;28;19920;-92
2023/08/10 14:09:27;;;;;;;;;;;24.30;99.90;;;;;;5016977;28;19917;-92
2023/08/10 14:11:55;;;;;;;;;;;24.30;99.90;;;;;;5017486;28;19913;-94
2023/08/10 14:14:26;;;;;;;;;;;24.40;99.90;;;;;;5020900;28;19909;-93
2023/08/10 14:16:52;;;;;;;;;;;24.40;99.90;;;;;;5002760;28;19963;-91
2023/08/10 14:19:18;;;;;;;;;;;24.40;99.90;;;;;;5018994;28;19948;-92
2023/08/10 14:21:43;;;;;;;;;;;24.40;99.90;;;;;;5004675;28;19924;-92
2023/08/10 14:24:15;;;;;;;;;;;24.50;99.90;;;;;;5005453;28;19914;-94
2023/08/10 14:26:40;;;;;;;;;;;24.40;99.90;;;;;;5007884;28;19919;-94